createdAt,value
2018-12-13T05:43:52.663Z,23.67
2018-12-13T05:49:01.710Z,24.67
2018-12-13T05:51:30.748Z,22.60
2018-12-13T05:53:59.591Z,28.20
2018-12-13T05:56:28.118Z,25.83
2018-12-13T05:58:57.107Z,25.10
2018-12-13T06:01:25.639Z,24.03
2018-12-13T06:03:54.758Z,27.17
2018-12-13T06:06:23.823Z,24.87
2018-12-13T06:08:53.432Z,24.60
2018-12-13T06:11:21.847Z,27.37
2018-12-13T06:13:50.536Z,24.47
2018-12-13T06:16:19.603Z,23.40
2018-12-13T06:18:47.999Z,27.07
2018-12-13T06:21:16.546Z,28.80
2018-12-13T06:23:45.382Z,26.90
2018-12-13T06:26:13.804Z,29.70
2018-12-13T06:28:42.185Z,27.50
2018-12-13T06:31:10.658Z,28.77
2018-12-13T06:33:39.324Z,25.93
2018-12-13T06:36:07.746Z,24.77
2018-12-13T06:38:37.051Z,27.27
2018-12-13T06:41:05.451Z,28.97
2018-12-13T06:43:33.877Z,26.33
2018-12-13T06:46:03.750Z,29.53
2018-12-13T06:48:32.675Z,27.90
2018-12-13T06:51:01.186Z,31.37
2018-12-13T06:53:30.013Z,28.53
2018-12-13T06:55:59.306Z,27.47
2018-12-13T06:58:28.048Z,28.57
2018-12-13T07:00:56.434Z,27.67
2018-12-13T07:03:24.794Z,27.73
2018-12-13T07:05:53.808Z,27.53
2018-12-13T07:08:22.773Z,26.57
2018-12-13T07:10:51.525Z,29.33
2018-12-13T07:13:20.426Z,29.33
2018-12-13T07:15:49.797Z,29.23
2018-12-13T07:18:18.173Z,31.10
2018-12-13T07:20:46.830Z,27.70
2018-12-13T07:23:15.460Z,27.23
2018-12-13T07:25:44.185Z,27.80
2018-12-13T07:28:13.561Z,26.77
2018-12-13T07:30:41.939Z,31.30
2018-12-13T07:33:10.319Z,30.27
2018-12-13T07:35:39.228Z,30.57
2018-12-13T07:38:14.087Z,28.80
2018-12-13T07:40:38.150Z,31.47
2018-12-13T07:43:06.860Z,30.23
2018-12-13T07:45:35.841Z,28.43
2018-12-13T07:48:04.524Z,29.60
2018-12-13T07:50:33.190Z,31.43
2018-12-13T07:53:01.920Z,30.17
2018-12-13T07:55:30.722Z,32.40
2018-12-13T07:57:59.271Z,28.77
2018-12-13T08:00:27.924Z,29.33
2018-12-13T08:02:56.308Z,29.13
2018-12-13T08:05:25.120Z,27.47
2018-12-13T08:07:53.523Z,28.17
2018-12-13T08:10:23.091Z,29.30
2018-12-13T08:12:51.482Z,26.80
2018-12-13T08:15:20.617Z,27.93
2018-12-13T08:17:49.564Z,28.60
2018-12-13T08:20:18.939Z,28.83
2018-12-13T08:22:48.154Z,28.90
2018-12-13T08:25:17.621Z,30.13
2018-12-13T08:27:46.512Z,27.57
2018-12-13T08:30:15.052Z,28.23
2018-12-13T08:32:43.602Z,26.70
2018-12-13T08:35:12.253Z,27.60
2018-12-13T08:37:42.172Z,25.97
2018-12-13T08:40:10.887Z,27.03
2018-12-13T08:42:39.909Z,27.40
2018-12-13T08:45:08.823Z,24.50
2018-12-13T08:47:37.339Z,22.27
2018-12-13T08:50:06.610Z,24.77
2018-12-13T08:52:34.993Z,22.17
2018-12-13T08:55:03.941Z,23.83
2018-12-13T08:57:32.624Z,25.40
2018-12-13T09:00:01.086Z,26.53
2018-12-13T09:02:29.478Z,27.60
2018-12-13T09:04:58.069Z,23.37
2018-12-13T09:07:26.761Z,24.80
2018-12-13T09:09:55.723Z,26.83
2018-12-13T09:12:24.423Z,26.10
2018-12-13T09:14:52.823Z,27.67
2018-12-13T09:17:21.209Z,24.97
2018-12-13T09:19:49.824Z,28.33
2018-12-13T09:22:18.258Z,25.53
2018-12-13T09:24:47.251Z,27.67
2018-12-13T09:27:16.788Z,25.43
2018-12-13T09:29:45.842Z,23.80
2018-12-13T09:32:14.243Z,25.63
2018-12-13T09:34:42.701Z,24.07
2018-12-13T09:37:11.188Z,24.37
2018-12-13T09:39:40.011Z,24.97
2018-12-13T09:42:08.472Z,27.43
2018-12-13T09:44:37.323Z,26.50
2018-12-13T09:47:06.291Z,32.70
2018-12-13T09:49:34.687Z,33.90
2018-12-13T09:52:03.071Z,29.30
2018-12-13T09:54:31.538Z,22.97
2018-12-13T09:57:00.420Z,23.63
2018-12-13T09:59:29.129Z,24.87
2018-12-13T10:01:57.952Z,24.50
2018-12-13T10:04:26.902Z,26.20
2018-12-13T10:06:55.357Z,34.80
2018-12-13T10:09:23.875Z,38.97
2018-12-13T10:11:52.381Z,28.33
2018-12-13T10:14:20.846Z,23.33
2018-12-13T10:16:49.675Z,24.30
2018-12-13T10:19:18.079Z,24.10
2018-12-13T10:21:46.647Z,23.50
2018-12-13T10:24:15.363Z,25.80
2018-12-13T10:26:43.755Z,25.83
2018-12-13T10:29:12.118Z,24.60
2018-12-13T10:31:40.516Z,26.00
2018-12-13T10:34:09.021Z,27.13
2018-12-13T10:36:37.960Z,24.27
2018-12-13T10:39:08.605Z,24.97
2018-12-13T10:41:37.978Z,27.80
2018-12-13T10:44:06.407Z,29.73
2018-12-13T10:46:34.965Z,27.33
2018-12-13T10:49:03.906Z,24.40
2018-12-13T10:51:32.744Z,41.33
2018-12-13T10:54:01.162Z,42.67
2018-12-13T10:56:29.532Z,29.93
2018-12-13T10:58:58.397Z,26.63
2018-12-13T11:01:32.152Z,26.63
2018-12-13T11:04:00.807Z,27.70
2018-12-13T11:06:29.285Z,27.60
2018-12-13T11:08:59.529Z,27.47
2018-12-13T11:11:28.704Z,28.17
2018-12-13T11:13:57.348Z,26.20
2018-12-13T11:16:26.381Z,25.23
2018-12-13T11:18:54.759Z,27.97
2018-12-13T11:21:23.442Z,26.17
2018-12-13T11:23:52.307Z,29.20
2018-12-13T11:26:20.830Z,38.70
2018-12-13T11:30:27.928Z,38.07
2018-12-13T11:32:56.515Z,30.73
2018-12-13T11:35:25.371Z,25.87
2018-12-13T11:37:54.192Z,26.77
2018-12-13T11:40:22.863Z,27.30
2018-12-13T11:42:51.511Z,29.10
2018-12-13T11:45:20.554Z,28.97
2018-12-13T11:47:49.364Z,28.80
2018-12-13T11:50:17.775Z,26.70
2018-12-13T11:52:47.175Z,28.80
2018-12-13T11:55:30.126Z,29.53
2018-12-13T11:57:59.594Z,29.20
2018-12-13T12:00:28.366Z,26.27
2018-12-13T12:02:57.316Z,28.80
2018-12-13T12:05:26.039Z,30.80
2018-12-13T12:07:54.692Z,28.23
2018-12-13T12:10:23.794Z,31.20
2018-12-13T12:12:52.399Z,32.97
2018-12-13T12:15:20.945Z,32.83
2018-12-13T12:17:50.331Z,26.73
2018-12-13T12:20:18.991Z,29.37
2018-12-13T12:22:47.392Z,32.03
2018-12-13T12:25:16.654Z,29.93
2018-12-13T12:27:45.447Z,27.67
2018-12-13T12:30:14.429Z,28.70
2018-12-13T12:32:43.251Z,28.67
2018-12-13T12:35:12.339Z,30.20
2018-12-13T12:37:41.062Z,27.10
2018-12-13T12:40:10.167Z,30.53
2018-12-13T12:42:38.902Z,28.30
2018-12-13T12:45:08.635Z,29.27
2018-12-13T12:47:37.074Z,27.60
2018-12-13T12:50:07.698Z,29.40
2018-12-13T12:52:36.386Z,28.03
2018-12-13T12:55:05.311Z,24.77
2018-12-13T12:57:33.701Z,27.13
2018-12-13T13:00:02.147Z,27.27
2018-12-13T13:02:31.957Z,26.93
2018-12-13T13:05:00.577Z,26.33
2018-12-13T13:07:28.977Z,26.23
2018-12-13T13:09:57.929Z,25.60
2018-12-13T13:12:27.059Z,31.20
2018-12-13T13:14:55.628Z,32.40
2018-12-13T13:17:24.052Z,28.63
2018-12-13T13:19:52.652Z,26.00
2018-12-13T13:22:21.675Z,30.10
2018-12-13T13:24:50.822Z,35.37
2018-12-13T13:27:19.666Z,27.73
2018-12-13T13:29:48.054Z,24.23
2018-12-13T13:32:16.969Z,24.27
2018-12-13T13:34:45.712Z,24.20
2018-12-13T13:37:14.411Z,23.63
2018-12-13T13:39:43.537Z,25.53
2018-12-13T13:42:12.400Z,25.33
2018-12-13T13:44:41.714Z,25.40
2018-12-13T13:47:10.132Z,28.67
2018-12-13T13:49:38.762Z,25.47
2018-12-13T13:52:08.681Z,25.93
2018-12-13T13:54:37.912Z,24.30
2018-12-13T13:57:06.315Z,26.10
2018-12-13T13:59:35.026Z,27.37
2018-12-13T14:02:03.815Z,29.07
2018-12-13T14:04:32.203Z,27.70
2018-12-13T14:07:01.104Z,26.80
2018-12-13T14:09:29.770Z,26.93
2018-12-13T14:11:58.626Z,26.90
2018-12-13T14:14:27.004Z,28.97
2018-12-13T14:16:55.535Z,26.33
2018-12-13T14:19:23.938Z,30.40
2018-12-13T14:21:52.544Z,29.80
2018-12-13T14:24:21.899Z,31.03
2018-12-13T14:26:50.329Z,26.93
2018-12-13T14:29:18.773Z,28.90
2018-12-13T14:31:48.023Z,30.70
2018-12-13T14:34:16.621Z,29.13
2018-12-13T14:36:45.244Z,31.07
2018-12-13T14:39:13.863Z,27.77
2018-12-13T14:41:42.798Z,28.97
2018-12-13T14:44:11.901Z,29.57
2018-12-13T14:49:15.213Z,44.07
2018-12-13T14:51:44.427Z,30.93
2018-12-13T14:54:12.895Z,31.83
2018-12-13T14:56:41.520Z,28.57
2018-12-13T14:59:10.318Z,30.47
2018-12-13T15:01:40.225Z,28.07
2018-12-13T15:04:08.854Z,28.67
2018-12-13T15:06:37.767Z,28.27
2018-12-13T15:09:07.560Z,30.63
2018-12-13T15:11:36.331Z,29.60
2018-12-13T15:14:04.993Z,31.60
2018-12-13T15:16:34.091Z,29.60
2018-12-13T15:19:02.848Z,27.90
2018-12-13T15:21:31.550Z,25.97
2018-12-13T15:24:00.133Z,28.90
2018-12-13T15:26:28.526Z,27.27
2018-12-13T15:28:57.096Z,24.87
2018-12-13T15:31:25.954Z,31.73
2018-12-13T15:33:54.888Z,32.23
2018-12-13T15:36:23.912Z,34.13
2018-12-13T15:38:52.402Z,29.97
2018-12-13T15:41:20.997Z,31.43
2018-12-13T15:43:49.403Z,33.10
2018-12-13T15:46:18.039Z,29.63
2018-12-13T15:48:46.440Z,30.63
2018-12-13T15:51:14.913Z,28.70
2018-12-13T15:53:43.314Z,31.33
2018-12-13T15:56:11.747Z,31.67
2018-12-13T15:58:40.489Z,36.80
2018-12-13T16:01:08.904Z,35.10
2018-12-13T16:03:37.443Z,35.27
2018-12-13T16:06:05.861Z,34.83
2018-12-13T16:08:34.418Z,36.00
2018-12-13T16:11:03.400Z,34.23
2018-12-13T16:13:32.059Z,36.17
2018-12-13T16:16:00.772Z,36.00
2018-12-13T16:18:29.220Z,34.90
2018-12-13T16:20:58.158Z,37.53
2018-12-13T16:23:27.170Z,35.00
2018-12-13T16:25:56.115Z,35.17
2018-12-13T16:28:24.536Z,33.33
2018-12-13T16:30:53.517Z,33.97
2018-12-13T16:33:22.270Z,32.40
2018-12-13T16:35:51.305Z,35.67
2018-12-13T16:38:19.995Z,34.10
2018-12-13T16:40:48.425Z,33.00
2018-12-13T16:43:17.478Z,36.60
2018-12-13T16:45:46.214Z,33.30
2018-12-13T16:48:15.085Z,32.50
2018-12-13T16:50:44.046Z,32.07
2018-12-13T16:53:13.182Z,35.47
2018-12-13T16:55:42.964Z,36.17
2018-12-13T16:58:11.749Z,35.33
2018-12-13T17:00:40.830Z,32.97
2018-12-13T17:03:42.683Z,32.43
2018-12-13T17:06:11.335Z,33.47
2018-12-13T17:08:39.936Z,31.80
2018-12-13T17:11:08.970Z,34.50
2018-12-13T17:13:38.237Z,34.43
2018-12-13T17:16:06.651Z,34.57
2018-12-13T17:18:35.355Z,34.63
2018-12-13T17:21:04.666Z,36.27
2018-12-13T17:23:33.367Z,35.20
2018-12-13T17:26:02.323Z,36.80
2018-12-13T17:28:31.045Z,36.77
2018-12-13T17:30:59.712Z,34.03
2018-12-13T17:33:28.225Z,36.20
2018-12-13T17:35:56.767Z,35.07
2018-12-13T17:38:25.725Z,33.63
2018-12-13T17:40:54.458Z,33.90
2018-12-13T17:43:22.889Z,33.83
2018-12-13T17:45:51.532Z,38.07
2018-12-13T17:48:20.249Z,33.43
2018-12-13T17:50:48.911Z,36.80
2018-12-13T17:53:17.352Z,33.50
2018-12-13T17:55:45.928Z,37.00
2018-12-13T17:58:14.641Z,34.67
2018-12-13T18:00:43.671Z,33.40
2018-12-13T18:03:12.110Z,34.40
2018-12-13T18:05:41.072Z,35.83
2018-12-13T18:08:10.049Z,32.33
2018-12-13T18:10:38.643Z,36.93
2018-12-13T18:13:07.357Z,37.33
2018-12-13T18:15:35.959Z,34.00
2018-12-13T18:18:05.320Z,39.33
2018-12-13T18:20:34.880Z,36.10
2018-12-13T18:23:03.292Z,44.10
2018-12-13T18:25:32.374Z,39.07
2018-12-13T18:28:00.819Z,37.17
2018-12-13T18:30:29.705Z,38.10
2018-12-13T18:32:58.159Z,38.00
2018-12-13T18:35:27.075Z,37.27
2018-12-13T18:37:55.762Z,33.70
2018-12-13T18:40:24.626Z,37.00
2018-12-13T18:42:53.434Z,35.00
2018-12-13T18:45:24.140Z,35.23
2018-12-13T18:47:52.765Z,34.77
2018-12-13T18:50:21.351Z,34.77
2018-12-13T18:52:50.004Z,32.93
2018-12-13T18:55:18.546Z,33.57
2018-12-13T18:57:47.089Z,36.67
2018-12-13T19:00:15.913Z,34.00
2018-12-13T19:02:45.176Z,36.53
2018-12-13T19:05:13.786Z,35.97
2018-12-13T19:07:42.229Z,34.10
2018-12-13T19:10:10.638Z,33.03
2018-12-13T19:12:39.471Z,33.10
2018-12-13T19:15:08.545Z,37.13
2018-12-13T19:17:37.200Z,38.43
2018-12-13T19:20:07.541Z,33.13
2018-12-13T19:22:36.143Z,33.13
2018-12-13T19:25:06.035Z,41.93
2018-12-13T19:27:34.759Z,35.30
2018-12-13T19:30:03.791Z,32.83
2018-12-13T19:32:32.357Z,36.30
2018-12-13T19:35:01.047Z,33.77
2018-12-13T19:37:29.775Z,36.40
2018-12-13T19:39:58.522Z,39.10
2018-12-13T19:42:27.112Z,35.13
2018-12-13T19:44:55.707Z,32.80
2018-12-13T19:47:24.736Z,36.67
2018-12-13T19:49:53.915Z,35.87
2018-12-13T19:52:22.331Z,34.03
2018-12-13T19:54:51.146Z,38.53
2018-12-13T19:57:19.586Z,35.10
2018-12-13T19:59:47.996Z,33.30
2018-12-13T20:02:16.610Z,37.70
2018-12-13T20:04:45.547Z,34.93
2018-12-13T20:07:14.729Z,33.03
2018-12-13T20:09:43.569Z,33.13
2018-12-13T20:12:12.931Z,34.63
2018-12-13T20:14:41.603Z,33.60
2018-12-13T20:17:10.240Z,32.87
2018-12-13T20:19:38.944Z,36.33
2018-12-13T20:22:07.845Z,35.17
2018-12-13T20:24:36.776Z,32.60
2018-12-13T20:27:05.627Z,34.63
2018-12-13T20:29:34.647Z,33.13
2018-12-13T20:32:03.066Z,35.03
2018-12-13T20:34:31.660Z,32.47
2018-12-13T20:37:00.574Z,35.17
2018-12-13T20:39:29.699Z,36.37
2018-12-13T20:41:58.557Z,34.77
2018-12-13T20:44:27.324Z,38.80
2018-12-13T20:46:56.690Z,36.10
2018-12-13T20:49:25.393Z,31.40
2018-12-13T20:51:55.223Z,38.53
2018-12-13T20:54:23.925Z,36.70
2018-12-13T20:56:52.315Z,34.23
2018-12-13T20:59:20.732Z,35.50
2018-12-13T21:01:49.845Z,38.07
2018-12-13T21:04:18.287Z,38.33
2018-12-13T21:06:51.255Z,35.13
2018-12-13T21:09:20.019Z,32.13
2018-12-13T21:11:48.869Z,34.07
2018-12-13T21:14:17.690Z,34.23
2018-12-13T21:16:46.539Z,34.80
2018-12-13T21:19:15.351Z,35.53
2018-12-13T21:21:44.519Z,37.20
2018-12-13T21:24:13.392Z,34.43
2018-12-13T21:26:42.080Z,41.93
2018-12-13T21:29:10.703Z,40.13
2018-12-13T21:31:39.110Z,36.53
2018-12-13T21:34:08.059Z,35.50
2018-12-13T21:36:36.519Z,37.17
2018-12-13T21:39:06.735Z,40.03
2018-12-13T21:41:35.300Z,34.03
2018-12-13T21:44:03.835Z,35.60
2018-12-13T21:46:32.606Z,36.30
2018-12-13T21:49:01.175Z,36.17
2018-12-13T21:51:29.578Z,35.80
2018-12-13T21:53:58.793Z,33.70
2018-12-13T21:56:27.823Z,38.87
2018-12-13T21:58:56.288Z,39.20
2018-12-13T22:01:25.141Z,37.67
2018-12-13T22:03:53.615Z,41.20
2018-12-13T22:06:22.509Z,41.63
2018-12-13T22:08:50.918Z,36.43
2018-12-13T22:11:20.119Z,40.80
2018-12-13T22:13:48.962Z,37.83
2018-12-13T22:16:17.570Z,39.27
2018-12-13T22:18:46.567Z,38.53
2018-12-13T22:21:15.275Z,37.70
2018-12-13T22:23:44.122Z,40.07
2018-12-13T22:26:12.709Z,37.83
2018-12-13T22:28:41.083Z,37.83
